createdAt,value
2022-08-19T00:01:52.843Z,59.87
2022-08-19T00:11:56.737Z,60.10
2022-08-19T00:21:58.499Z,61.96
2022-08-19T00:32:00.886Z,61.19
2022-08-19T00:42:03.117Z,62.85
2022-08-19T00:52:11.001Z,63.01
2022-08-19T01:02:17.790Z,64.91
2022-08-19T01:12:20.010Z,66.32
2022-08-19T01:22:31.445Z,67.72
2022-08-19T01:32:35.973Z,68.63
2022-08-19T01:42:38.040Z,68.81
2022-08-19T01:52:45.118Z,70.90
2022-08-19T02:02:46.873Z,72.00
2022-08-19T02:12:50.444Z,73.55
2022-08-19T02:22:55.380Z,76.13
2022-08-19T02:32:57.248Z,77.18
2022-08-19T02:42:59.087Z,79.06
2022-08-19T02:53:00.919Z,78.85
2022-08-19T03:03:02.745Z,78.68
2022-08-19T03:13:04.759Z,79.29
2022-08-19T03:23:06.830Z,79.08
2022-08-19T03:33:10.441Z,80.27
2022-08-19T03:43:20.278Z,82.29
2022-08-19T03:53:21.890Z,83.46
2022-08-19T04:03:25.315Z,83.88
2022-08-19T04:13:29.516Z,83.42
2022-08-19T04:23:32.192Z,82.55
2022-08-19T04:33:33.984Z,81.72
2022-08-19T04:43:40.866Z,79.07
2022-08-19T04:53:43.254Z,77.91
2022-08-19T05:03:46.127Z,77.07
2022-08-19T05:13:52.957Z,75.80
2022-08-19T05:24:06.040Z,74.05
2022-08-19T05:34:20.259Z,71.70
2022-08-19T05:44:27.143Z,68.22
2022-08-19T05:54:43.778Z,65.38
2022-08-19T06:36:34.878Z,53.91
2022-08-19T06:46:38.946Z,50.38
2022-08-19T06:56:42.905Z,48.06
2022-08-19T07:07:20.245Z,45.98
2022-08-19T07:17:23.325Z,42.94
2022-08-19T07:27:25.445Z,41.49
2022-08-19T07:37:33.188Z,39.66
2022-08-19T07:47:58.759Z,37.86
2022-08-19T07:58:03.897Z,35.95
2022-08-19T08:08:27.684Z,35.16
2022-08-19T08:18:50.487Z,33.59
2022-08-19T08:28:57.166Z,32.27
2022-08-19T08:38:59.074Z,31.28
2022-08-19T08:49:34.407Z,30.68
2022-08-19T08:59:42.676Z,30.44
2022-08-19T09:09:51.548Z,30.46
2022-08-19T09:20:09.471Z,28.64
2022-08-19T09:30:40.832Z,26.34
2022-08-19T09:40:43.032Z,25.76
2022-08-19T09:50:51.779Z,25.10
2022-08-19T10:00:55.421Z,24.21
2022-08-19T10:10:57.396Z,23.12
2022-08-19T10:21:11.644Z,21.47
2022-08-19T10:31:59.958Z,21.14
2022-08-19T10:41:50.017Z,20.79
2022-08-19T10:52:10.365Z,19.99
2022-08-19T11:02:21.818Z,18.52
2022-08-19T11:12:26.542Z,18.87
2022-08-19T11:22:35.331Z,17.74
2022-08-19T11:32:48.778Z,16.35
2022-08-19T11:42:57.287Z,15.88
2022-08-19T11:52:59.020Z,15.12
2022-08-19T12:03:04.742Z,15.50
2022-08-19T12:13:07.757Z,12.80
2022-08-19T12:23:10.902Z,15.22
2022-08-19T12:33:14.591Z,14.79
2022-08-19T12:43:17.766Z,14.42
2022-08-19T12:53:19.272Z,13.84
2022-08-19T13:03:30.043Z,13.41
2022-08-19T13:13:31.664Z,16.98
2022-08-19T13:23:35.353Z,14.16
2022-08-19T13:33:37.092Z,14.40
2022-08-19T13:43:40.963Z,16.57
2022-08-19T13:53:47.796Z,15.68
2022-08-19T14:03:50.328Z,16.26
2022-08-19T14:13:53.089Z,14.58
2022-08-19T14:23:55.129Z,23.47
2022-08-19T14:33:56.686Z,22.81
2022-08-19T14:43:58.368Z,23.76
2022-08-19T14:54:00.156Z,28.03
2022-08-19T15:04:02.606Z,30.33
2022-08-19T15:14:06.502Z,30.27
2022-08-19T15:24:10.220Z,30.20
2022-08-19T15:34:11.985Z,31.36
2022-08-19T15:44:16.574Z,32.38
2022-08-19T15:54:21.673Z,32.13
2022-08-19T16:04:42.011Z,33.70
2022-08-19T16:14:43.618Z,32.70
2022-08-19T16:24:45.327Z,32.23
2022-08-19T16:34:47.624Z,32.59
2022-08-19T16:44:49.430Z,32.19
2022-08-19T16:54:51.091Z,33.30
2022-08-19T17:04:58.092Z,33.06
2022-08-19T17:15:03.101Z,33.94
2022-08-19T17:25:05.128Z,34.97
2022-08-19T17:35:07.641Z,35.49
2022-08-19T17:45:11.240Z,37.04
2022-08-19T17:55:13.038Z,37.76
2022-08-19T18:05:14.873Z,38.95
2022-08-19T18:15:17.522Z,38.65
2022-08-19T18:25:24.425Z,38.58
2022-08-19T18:35:31.796Z,41.28
2022-08-19T18:45:53.149Z,43.70
2022-08-19T18:55:55.721Z,51.35
2022-08-19T19:05:57.635Z,59.52
2022-08-19T19:16:03.851Z,65.15
2022-08-19T19:26:10.978Z,64.17
2022-08-19T19:36:13.454Z,63.17
2022-08-19T19:46:16.476Z,68.48
2022-08-19T19:56:18.897Z,74.86
2022-08-19T20:06:22.854Z,80.04
2022-08-19T20:16:31.178Z,81.77
2022-08-19T20:26:33.870Z,99.63
2022-08-19T20:36:36.997Z,100.00
2022-08-19T20:46:38.869Z,100.00
2022-08-19T20:56:40.754Z,100.00
2022-08-19T21:06:45.529Z,100.00
2022-08-19T21:16:47.945Z,100.00
2022-08-19T21:27:49.748Z,100.00
2022-08-19T21:37:54.398Z,100.00
2022-08-19T21:48:55.093Z,100.00
2022-08-19T21:59:55.262Z,100.00
2022-08-19T22:10:55.598Z,100.00
2022-08-19T22:21:00.449Z,100.00
2022-08-19T22:31:04.963Z,100.00
2022-08-19T22:41:07.964Z,100.00
2022-08-19T22:51:30.795Z,100.00
2022-08-19T23:01:32.557Z,100.00
2022-08-19T23:11:39.872Z,100.00
2022-08-19T23:21:45.088Z,100.00
2022-08-19T23:31:49.667Z,100.00
2022-08-19T23:41:52.782Z,100.00
2022-08-19T23:51:55.673Z,100.00
